Time;durP1;ratioP1;P1;durP2;ratioP2;P2;SDS_P1;SDS_P2;PMS_P1;PMS_P2;Temp;Humidity;BMP_temperature;BMP_pressure;BME280_temperature;BME280_humidity;BME280_pressure;Samples;Min_cycle;Max_cycle;Signal;HPM_P1;HPM_P2
2023/02/23 00:01:16;;;;;;;;;;;9.70;72.60;;;;;;5001186;28;93914;-38
2023/02/23 00:03:42;;;;;;;;;;;9.70;72.60;;;;;;5001313;28;92206;-38
2023/02/23 00:06:08;;;;;;;;;;;9.60;72.60;;;;;;5001148;28;92334;-38
2023/02/23 00:08:35;;;;;;;;;;;9.60;72.60;;;;;;4999994;28;95628;-38
2023/02/23 00:11:04;;;;;;;;;;;9.60;72.60;;;;;;5000944;28;93219;-38
2023/02/23 00:13:36;;;;;;;;;;;9.60;72.60;;;;;;5000941;28;94119;-38
2023/02/23 00:16:05;;;;;;;;;;;9.60;72.50;;;;;;5000617;28;94883;-38
2023/02/23 00:18:39;;;;;;;;;;;9.60;72.60;;;;;;5004054;28;92171;-38
2023/02/23 00:21:05;;;;;;;;;;;9.60;72.60;;;;;;5000245;28;94572;-39
2023/02/23 00:23:31;;;;;;;;;;;9.60;72.50;;;;;;5000987;28;92584;-38
2023/02/23 00:25:58;;;;;;;;;;;9.60;72.50;;;;;;5001425;28;94130;-38
2023/02/23 00:28:23;;;;;;;;;;;9.50;72.50;;;;;;5000131;28;94649;-39
2023/02/23 00:30:49;;;;;;;;;;;9.50;72.40;;;;;;5000668;28;92204;-38
2023/02/23 00:33:15;;;;;;;;;;;9.50;72.50;;;;;;5000196;28;94001;-38
2023/02/23 00:35:41;;;;;;;;;;;9.50;72.40;;;;;;5000245;28;94783;-38
2023/02/23 00:38:07;;;;;;;;;;;9.50;72.60;;;;;;5003716;28;92889;-38
2023/02/23 00:40:32;;;;;;;;;;;9.50;72.50;;;;;;5000111;28;94225;-38
2023/02/23 00:42:59;;;;;;;;;;;9.50;72.50;;;;;;5000550;28;92179;-38
2023/02/23 00:45:25;;;;;;;;;;;9.40;72.30;;;;;;5000608;28;94230;-38
2023/02/23 00:47:50;;;;;;;;;;;9.50;72.50;;;;;;4999962;28;94452;-38
2023/02/23 00:50:16;;;;;;;;;;;9.50;72.40;;;;;;5001097;28;91498;-38
2023/02/23 00:52:42;;;;;;;;;;;9.40;72.30;;;;;;5000547;28;92265;-38
2023/02/23 00:55:11;;;;;;;;;;;9.40;72.40;;;;;;4998907;28;93560;-38
2023/02/23 00:57:37;;;;;;;;;;;9.40;72.50;;;;;;4999885;28;93115;-38
2023/02/23 01:00:12;;;;;;;;;;;9.40;72.40;;;;;;5002777;28;93364;-38
2023/02/23 01:02:37;;;;;;;;;;;9.40;72.40;;;;;;5000201;28;92078;-38
2023/02/23 01:05:03;;;;;;;;;;;9.30;72.40;;;;;;5000113;28;94237;-39
2023/02/23 01:07:29;;;;;;;;;;;9.30;72.50;;;;;;4999343;28;94317;-39
2023/02/23 01:09:54;;;;;;;;;;;9.30;72.50;;;;;;5000370;28;92245;-38
2023/02/23 01:12:20;;;;;;;;;;;9.30;72.30;;;;;;5000055;28;93898;-39
2023/02/23 01:14:46;;;;;;;;;;;9.30;72.40;;;;;;5000006;28;92817;-39
2023/02/23 01:17:12;;;;;;;;;;;9.30;72.50;;;;;;5000065;28;92134;-39
2023/02/23 01:19:37;;;;;;;;;;;9.30;72.40;;;;;;5000130;28;94202;-38
2023/02/23 01:22:03;;;;;;;;;;;9.30;72.40;;;;;;5002178;28;94018;-39
2023/02/23 01:24:28;;;;;;;;;;;9.30;72.40;;;;;;4998600;28;96429;-38
2023/02/23 01:29:38;;;;;;;;;;;9.20;72.30;;;;;;5000300;28;92210;-38
2023/02/23 01:32:04;;;;;;;;;;;9.20;72.20;;;;;;4999800;28;93605;-38
2023/02/23 01:34:29;;;;;;;;;;;9.20;72.30;;;;;;4998936;28;94464;-38
2023/02/23 01:36:55;;;;;;;;;;;9.20;72.20;;;;;;4999934;28;92191;-38
2023/02/23 01:39:20;;;;;;;;;;;9.20;72.30;;;;;;5000350;28;93106;-38
2023/02/23 01:41:46;;;;;;;;;;;9.20;72.30;;;;;;4999121;28;94296;-38
2023/02/23 01:44:12;;;;;;;;;;;9.20;72.40;;;;;;5002897;28;92044;-38
2023/02/23 01:46:38;;;;;;;;;;;9.10;72.20;;;;;;4998373;28;94653;-38
2023/02/23 01:49:05;;;;;;;;;;;9.10;72.20;;;;;;4999339;28;92192;-39
2023/02/23 01:51:32;;;;;;;;;;;9.10;72.30;;;;;;4999467;28;92507;-38
2023/02/23 01:54:04;;;;;;;;;;;9.10;72.90;;;;;;4999080;28;94402;-38
2023/02/23 01:56:35;;;;;;;;;;;9.10;72.20;;;;;;4999722;28;92041;-38
2023/02/23 01:59:03;;;;;;;;;;;9.10;72.20;;;;;;4999553;28;93694;-38
2023/02/23 02:01:29;;;;;;;;;;;9.10;72.30;;;;;;4998795;28;93068;-38
2023/02/23 02:04:04;;;;;;;;;;;9.10;72.30;;;;;;4999965;28;91433;-38
2023/02/23 02:06:30;;;;;;;;;;;9.00;72.20;;;;;;5001223;28;92878;-39
2023/02/23 02:08:58;;;;;;;;;;;9.00;72.20;;;;;;4999540;28;92135;-38
2023/02/23 02:11:43;;;;;;;;;;;9.00;72.30;;;;;;4998567;28;94176;-39
2023/02/23 02:14:13;;;;;;;;;;;9.00;72.20;;;;;;4998389;28;94204;-38
2023/02/23 02:16:48;;;;;;;;;;;9.00;72.20;;;;;;4999136;28;92119;-38
2023/02/23 02:19:32;;;;;;;;;;;9.00;72.20;;;;;;4999072;28;93851;-38
2023/02/23 02:22:10;;;;;;;;;;;9.00;72.30;;;;;;4998477;28;93448;-38
2023/02/23 02:24:41;;;;;;;;;;;9.00;72.30;;;;;;4999114;28;92232;-38
2023/02/23 02:27:13;;;;;;;;;;;9.00;72.30;;;;;;4999393;28;92393;-38
2023/02/23 02:29:42;;;;;;;;;;;8.90;72.30;;;;;;5002426;28;93776;-38
2023/02/23 02:32:09;;;;;;;;;;;8.90;72.20;;;;;;4999131;28;93450;-38
2023/02/23 02:34:38;;;;;;;;;;;8.90;72.20;;;;;;4998495;28;94581;-38
2023/02/23 02:37:22;;;;;;;;;;;8.90;72.30;;;;;;4998261;28;93243;-38
2023/02/23 02:40:13;;;;;;;;;;;8.90;72.20;;;;;;4998934;28;94017;-39
2023/02/23 02:42:47;;;;;;;;;;;8.90;72.30;;;;;;4998331;28;94693;-38
2023/02/23 02:45:12;;;;;;;;;;;8.90;72.30;;;;;;4998872;28;92031;-38
2023/02/23 02:47:44;;;;;;;;;;;8.80;72.20;;;;;;4999002;28;92335;-39
2023/02/23 02:50:14;;;;;;;;;;;8.80;72.20;;;;;;5001209;28;94494;-39
2023/02/23 02:52:56;;;;;;;;;;;8.80;72.30;;;;;;4998913;28;93973;-38
2023/02/23 02:55:27;;;;;;;;;;;8.80;72.20;;;;;;4999241;28;92457;-38
2023/02/23 02:57:56;;;;;;;;;;;8.80;72.40;;;;;;4998831;28;92249;-39
2023/02/23 04:18:49;;;;;;;;;;;8.30;72.50;;;;;;5001325;28;92383;-38
2023/02/23 04:21:15;;;;;;;;;;;8.30;72.60;;;;;;5000952;28;92473;-38
2023/02/23 04:23:41;;;;;;;;;;;8.20;72.60;;;;;;5000837;28;94224;-38
2023/02/23 04:26:06;;;;;;;;;;;8.20;72.50;;;;;;4999501;28;95315;-38
2023/02/23 04:28:32;;;;;;;;;;;8.20;72.60;;;;;;5004013;28;92217;-38
2023/02/23 04:30:57;;;;;;;;;;;8.20;73.20;;;;;;5000331;28;95068;-38
2023/02/23 04:33:26;;;;;;;;;;;8.20;72.50;;;;;;5000821;28;92156;-38
2023/02/23 04:35:53;;;;;;;;;;;8.20;72.60;;;;;;5000868;28;93924;-38
2023/02/23 04:38:19;;;;;;;;;;;8.20;72.50;;;;;;5000019;28;94349;-38
2023/02/23 04:40:44;;;;;;;;;;;8.20;72.50;;;;;;5000794;28;92405;-38
2023/02/23 04:43:13;;;;;;;;;;;8.10;72.50;;;;;;5000890;28;94145;-38
2023/02/23 04:45:39;;;;;;;;;;;8.10;73.30;;;;;;5000031;28;94201;-39
2023/02/23 04:48:04;;;;;;;;;;;8.10;72.60;;;;;;5000638;28;92139;-38
2023/02/23 04:50:30;;;;;;;;;;;8.10;72.60;;;;;;5002693;28;94424;-38
2023/02/23 04:52:55;;;;;;;;;;;8.00;72.60;;;;;;5000287;28;92198;-38
2023/02/23 04:55:22;;;;;;;;;;;8.10;72.50;;;;;;5000491;28;93717;-38
2023/02/23 04:57:48;;;;;;;;;;;8.00;72.60;;;;;;4999947;28;94584;-38
2023/02/23 05:00:13;;;;;;;;;;;8.00;72.60;;;;;;5000401;28;92345;-38
2023/02/23 05:02:39;;;;;;;;;;;8.00;72.60;;;;;;5000192;28;93763;-38
2023/02/23 05:05:06;;;;;;;;;;;8.00;72.70;;;;;;5000144;28;92978;-38
2023/02/23 05:07:32;;;;;;;;;;;8.00;72.60;;;;;;5000288;28;91402;-38
2023/02/23 05:09:57;;;;;;;;;;;8.00;72.70;;;;;;5002831;28;93320;-38
2023/02/23 05:12:23;;;;;;;;;;;7.90;72.60;;;;;;5000444;28;92110;-39
2023/02/23 05:14:48;;;;;;;;;;;7.90;72.60;;;;;;4999322;28;94632;-38
2023/02/23 05:17:14;;;;;;;;;;;7.90;72.70;;;;;;4999629;28;93616;-38
2023/02/23 05:19:40;;;;;;;;;;;7.90;72.70;;;;;;4999960;28;92685;-38
2023/02/23 05:22:06;;;;;;;;;;;7.90;72.70;;;;;;5000336;28;92688;-39
2023/02/23 05:24:31;;;;;;;;;;;7.90;72.70;;;;;;4999368;28;94650;-38
2023/02/23 05:26:57;;;;;;;;;;;7.90;72.80;;;;;;4999919;28;92123;-38
2023/02/23 05:29:23;;;;;;;;;;;7.80;72.80;;;;;;4999841;28;92902;-38
2023/02/23 05:31:49;;;;;;;;;;;7.90;72.80;;;;;;5002979;28;93552;-38
2023/02/23 05:34:15;;;;;;;;;;;7.80;72.70;;;;;;5000014;28;93098;-39
2023/02/23 05:36:41;;;;;;;;;;;7.90;72.70;;;;;;4999176;28;94561;-38
2023/02/23 05:39:07;;;;;;;;;;;7.80;72.70;;;;;;4999174;28;93085;-38
2023/02/23 05:41:32;;;;;;;;;;;7.80;72.80;;;;;;4999150;28;94694;-38
2023/02/23 05:43:58;;;;;;;;;;;7.80;72.80;;;;;;4999039;28;94828;-38
2023/02/23 05:46:24;;;;;;;;;;;7.80;72.70;;;;;;4999586;28;92298;-38
2023/02/23 05:48:50;;;;;;;;;;;7.70;72.70;;;;;;4999607;28;93802;-38
2023/02/23 05:51:16;;;;;;;;;;;7.80;72.80;;;;;;4999209;28;94275;-38
2023/02/23 05:53:42;;;;;;;;;;;7.70;72.80;;;;;;5002571;28;92657;-38
2023/02/23 05:56:10;;;;;;;;;;;7.70;72.70;;;;;;4999378;28;93502;-38
2023/02/23 05:58:36;;;;;;;;;;;7.70;72.80;;;;;;4999652;28;92184;-38
2023/02/23 06:01:02;;;;;;;;;;;7.70;72.70;;;;;;4999436;28;94035;-38
2023/02/23 06:03:27;;;;;;;;;;;7.70;72.70;;;;;;4998118;28;95186;-38
2023/02/23 06:05:54;;;;;;;;;;;7.70;72.70;;;;;;4999091;28;92262;-38
2023/02/23 06:08:20;;;;;;;;;;;7.70;72.80;;;;;;4999360;28;93799;-38
2023/02/23 06:10:46;;;;;;;;;;;7.70;72.70;;;;;;4998772;28;94567;-38
2023/02/23 06:13:12;;;;;;;;;;;7.70;72.80;;;;;;4999387;28;92129;-38
2023/02/23 06:15:37;;;;;;;;;;;7.70;73.40;;;;;;5001946;28;92366;-38
2023/02/23 06:18:03;;;;;;;;;;;7.70;72.70;;;;;;4999282;28;92058;-38
2023/02/23 06:20:28;;;;;;;;;;;7.60;72.60;;;;;;4999744;28;94073;-39
2023/02/23 06:22:54;;;;;;;;;;;7.60;72.70;;;;;;4998426;28;94174;-38
2023/02/23 06:25:19;;;;;;;;;;;7.60;72.70;;;;;;4999082;28;92209;-38
2023/02/23 06:27:45;;;;;;;;;;;7.60;72.70;;;;;;4998482;28;92959;-38
2023/02/23 06:30:11;;;;;;;;;;;7.60;72.80;;;;;;4998383;28;94644;-39
2023/02/23 06:32:37;;;;;;;;;;;7.60;72.70;;;;;;4999082;28;91955;-38
2023/02/23 06:35:04;;;;;;;;;;;7.60;72.70;;;;;;4999066;28;94105;-38
2023/02/23 06:37:30;;;;;;;;;;;7.60;72.60;;;;;;5001268;28;94670;-38
2023/02/23 06:39:56;;;;;;;;;;;7.60;72.70;;;;;;4998847;28;94225;-38
2023/02/23 06:42:22;;;;;;;;;;;7.60;72.70;;;;;;4998609;28;93023;-38
2023/02/23 06:44:47;;;;;;;;;;;7.60;72.80;;;;;;4999678;28;91389;-38
2023/02/23 06:47:13;;;;;;;;;;;7.60;72.70;;;;;;4998745;28;92827;-38
2023/02/23 06:49:39;;;;;;;;;;;7.50;72.60;;;;;;4998554;28;93127;-38
2023/02/23 06:52:05;;;;;;;;;;;7.50;72.60;;;;;;4998108;28;93141;-38
2023/02/23 06:54:33;;;;;;;;;;;7.50;72.60;;;;;;5002306;28;92766;-38
2023/02/23 06:56:58;;;;;;;;;;;7.50;72.70;;;;;;5001822;28;94485;-38
2023/02/23 06:59:24;;;;;;;;;;;7.50;72.70;;;;;;5005183;28;92039;-38
2023/02/23 07:01:49;;;;;;;;;;;7.50;72.70;;;;;;5001654;28;94627;-38
2023/02/23 07:04:15;;;;;;;;;;;7.50;72.80;;;;;;5002096;28;92234;-38
2023/02/23 07:06:40;;;;;;;;;;;7.50;72.70;;;;;;5001573;28;93564;-38
2023/02/23 07:09:06;;;;;;;;;;;7.50;72.70;;;;;;5002210;28;91610;-38
2023/02/23 07:11:31;;;;;;;;;;;7.50;72.70;;;;;;5002140;28;93440;-38
2023/02/23 07:13:58;;;;;;;;;;;7.50;72.70;;;;;;5001721;28;93911;-38
2023/02/23 07:16:24;;;;;;;;;;;7.50;72.70;;;;;;5000837;28;95648;-38
2023/02/23 07:18:49;;;;;;;;;;;7.50;72.70;;;;;;5005154;28;92166;-38
2023/02/23 07:21:15;;;;;;;;;;;7.50;72.70;;;;;;5001188;28;94655;-38
2023/02/23 07:23:41;;;;;;;;;;;7.50;72.80;;;;;;5001657;28;92141;-38
2023/02/23 07:26:06;;;;;;;;;;;7.50;72.80;;;;;;5001966;28;92516;-38
2023/02/23 07:28:32;;;;;;;;;;;7.50;72.70;;;;;;5001141;28;94553;-38
2023/02/23 07:30:57;;;;;;;;;;;7.50;72.70;;;;;;5001772;28;92145;-38
2023/02/23 07:33:23;;;;;;;;;;;7.50;72.80;;;;;;5002405;28;93897;-38
2023/02/23 07:35:49;;;;;;;;;;;7.50;72.70;;;;;;5001326;28;92967;-38
2023/02/23 07:38:15;;;;;;;;;;;7.50;72.70;;;;;;5001437;28;92169;-38
2023/02/23 07:40:40;;;;;;;;;;;7.50;72.70;;;;;;5003654;28;94639;-38
2023/02/23 07:43:06;;;;;;;;;;;7.50;72.70;;;;;;5001414;28;92184;-38
2023/02/23 07:45:31;;;;;;;;;;;7.50;72.70;;;;;;5001559;28;93975;-38
2023/02/23 07:47:58;;;;;;;;;;;7.50;72.70;;;;;;5001005;28;94677;-38
2023/02/23 07:50:25;;;;;;;;;;;7.50;72.70;;;;;;5001319;28;92022;-39
2023/02/23 07:52:51;;;;;;;;;;;7.50;72.70;;;;;;5001519;28;93701;-38
2023/02/23 07:55:17;;;;;;;;;;;7.50;72.70;;;;;;5000844;28;93353;-38
2023/02/23 07:57:42;;;;;;;;;;;7.50;72.60;;;;;;5001836;28;91346;-38
2023/02/23 08:00:08;;;;;;;;;;;7.50;72.60;;;;;;5001380;28;93186;-38
2023/02/23 08:02:34;;;;;;;;;;;7.50;72.60;;;;;;5003704;28;94454;-38
2023/02/23 08:04:59;;;;;;;;;;;7.60;72.60;;;;;;4999809;28;93862;-38
2023/02/23 08:07:24;;;;;;;;;;;7.50;72.60;;;;;;5000074;28;93207;-38
2023/02/23 08:09:51;;;;;;;;;;;7.50;72.70;;;;;;5000986;28;93373;-38
2023/02/23 08:12:16;;;;;;;;;;;7.50;72.70;;;;;;5000718;28;93813;-38
2023/02/23 08:14:42;;;;;;;;;;;7.50;72.70;;;;;;5000365;28;92214;-38
2023/02/23 08:17:08;;;;;;;;;;;7.60;72.70;;;;;;5001318;28;92186;-38
2023/02/23 08:19:34;;;;;;;;;;;7.60;72.70;;;;;;5001012;28;93103;-38
2023/02/23 08:22:00;;;;;;;;;;;7.50;72.60;;;;;;5000790;28;93497;-38
2023/02/23 08:24:26;;;;;;;;;;;7.50;72.70;;;;;;5003827;28;92238;-38
2023/02/23 08:26:51;;;;;;;;;;;7.50;72.70;;;;;;5000792;28;94772;-38
2023/02/23 08:29:17;;;;;;;;;;;7.60;72.70;;;;;;5000164;28;93162;-38
2023/02/23 08:31:43;;;;;;;;;;;7.60;72.70;;;;;;5000899;28;95032;-38
2023/02/23 08:34:09;;;;;;;;;;;7.50;72.70;;;;;;5000452;28;93600;-38
2023/02/23 08:36:34;;;;;;;;;;;7.60;72.70;;;;;;5000572;28;92272;-38
2023/02/23 08:39:01;;;;;;;;;;;7.50;72.70;;;;;;5000818;28;93839;-38
2023/02/23 08:41:26;;;;;;;;;;;7.50;72.70;;;;;;5000331;28;94296;-38
2023/02/23 08:43:52;;;;;;;;;;;7.60;72.70;;;;;;5000542;28;92095;-38
2023/02/23 08:46:19;;;;;;;;;;;7.60;72.70;;;;;;5003683;28;94025;-38
2023/02/23 08:48:45;;;;;;;;;;;7.60;72.70;;;;;;5000700;28;92138;-38
2023/02/23 08:51:11;;;;;;;;;;;7.60;72.70;;;;;;5000728;28;92423;-38
2023/02/23 08:53:36;;;;;;;;;;;7.60;72.80;;;;;;4999091;28;95172;-38
2023/02/23 08:56:03;;;;;;;;;;;7.50;72.90;;;;;;5000540;28;92200;-38
2023/02/23 08:58:30;;;;;;;;;;;7.60;72.90;;;;;;5000460;28;93630;-39
2023/02/23 09:00:55;;;;;;;;;;;7.60;72.80;;;;;;4999900;28;94957;-38
2023/02/23 09:03:21;;;;;;;;;;;7.60;72.90;;;;;;5000453;28;92159;-38
2023/02/23 09:05:47;;;;;;;;;;;7.60;72.90;;;;;;5002464;28;93777;-38
2023/02/23 09:08:13;;;;;;;;;;;7.60;72.90;;;;;;5000005;28;92211;-38
2023/02/23 09:10:39;;;;;;;;;;;7.60;72.90;;;;;;5000688;28;94175;-38
2023/02/23 09:13:04;;;;;;;;;;;7.60;73.00;;;;;;4999649;28;94593;-38
2023/02/23 09:15:30;;;;;;;;;;;7.60;73.00;;;;;;4999078;28;92154;-38
2023/02/23 09:17:59;;;;;;;;;;;7.60;73.10;;;;;;4999715;28;94071;-38
2023/02/23 09:20:25;;;;;;;;;;;7.60;73.10;;;;;;4999864;28;94617;-38
2023/02/23 09:22:52;;;;;;;;;;;7.60;73.10;;;;;;4999952;28;92023;-38
2023/02/23 09:25:21;;;;;;;;;;;7.60;73.10;;;;;;4999992;28;93907;-38
2023/02/23 09:27:47;;;;;;;;;;;7.60;73.10;;;;;;5002744;28;94605;-39
2023/02/23 09:30:16;;;;;;;;;;;7.60;73.20;;;;;;4999998;28;93909;-38
2023/02/23 09:32:49;;;;;;;;;;;7.60;73.20;;;;;;4999429;28;94613;-38
2023/02/23 09:35:16;;;;;;;;;;;7.60;73.70;;;;;;5000147;28;91578;-38
2023/02/23 09:37:49;;;;;;;;;;;7.60;73.10;;;;;;4999915;28;93148;-38
2023/02/23 09:40:22;;;;;;;;;;;7.60;73.10;;;;;;4999127;28;94570;-38
2023/02/23 09:42:52;;;;;;;;;;;7.60;73.10;;;;;;4999195;28;93095;-38
2023/02/23 09:45:22;;;;;;;;;;;7.70;73.20;;;;;;4999746;28;94759;-38
2023/02/23 09:47:59;;;;;;;;;;;7.70;73.20;;;;;;4999036;28;97659;-38
2023/02/23 09:50:27;;;;;;;;;;;7.70;73.10;;;;;;5003038;28;92022;-39
2023/02/23 09:53:08;;;;;;;;;;;7.70;73.10;;;;;;4999065;28;94658;-39
2023/02/23 09:55:34;;;;;;;;;;;7.70;73.10;;;;;;4999785;28;92005;-38
2023/02/23 09:58:06;;;;;;;;;;;7.70;73.10;;;;;;4999546;28;94086;-38
2023/02/23 10:00:35;;;;;;;;;;;7.70;73.20;;;;;;4999659;28;93274;-38
2023/02/23 10:03:01;;;;;;;;;;;7.70;73.20;;;;;;4999334;28;92166;-38
2023/02/23 10:05:30;;;;;;;;;;;7.70;73.20;;;;;;4998827;28;93769;-38
2023/02/23 10:08:01;;;;;;;;;;;7.80;73.30;;;;;;4998115;28;95506;-38
2023/02/23 10:10:36;;;;;;;;;;;7.80;73.40;;;;;;4999433;28;92035;-38
2023/02/23 10:13:11;;;;;;;;;;;7.80;73.30;;;;;;5001938;28;93765;-38
2023/02/23 10:15:45;;;;;;;;;;;7.80;73.30;;;;;;4999125;28;92300;-38
2023/02/23 10:18:11;;;;;;;;;;;7.80;73.30;;;;;;4999151;28;93945;-38
2023/02/23 10:20:36;;;;;;;;;;;7.80;73.30;;;;;;4998688;28;94415;-38
2023/02/23 10:23:04;;;;;;;;;;;7.80;73.30;;;;;;4999230;28;92072;-39
2023/02/23 10:25:30;;;;;;;;;;;7.80;73.40;;;;;;4999394;28;93595;-38
2023/02/23 10:27:57;;;;;;;;;;;7.80;73.40;;;;;;4998579;28;93072;-38
2023/02/23 10:30:24;;;;;;;;;;;7.90;73.50;;;;;;4999165;28;92179;-38
2023/02/23 10:32:49;;;;;;;;;;;7.80;73.40;;;;;;4999170;28;93161;-38
2023/02/23 10:35:16;;;;;;;;;;;7.90;73.40;;;;;;5001659;28;93434;-38
2023/02/23 10:37:42;;;;;;;;;;;7.90;73.30;;;;;;4999079;28;93798;-38
2023/02/23 10:40:14;;;;;;;;;;;7.90;73.30;;;;;;4998153;28;94552;-38
2023/02/23 10:42:39;;;;;;;;;;;7.90;73.30;;;;;;4999152;28;91950;-38
2023/02/23 10:45:18;;;;;;;;;;;7.90;73.40;;;;;;4999011;28;93945;-38
2023/02/23 10:47:44;;;;;;;;;;;7.90;73.40;;;;;;4998348;28;94447;-38
2023/02/23 10:50:10;;;;;;;;;;;8.00;73.40;;;;;;4999429;28;91493;-38
2023/02/23 10:52:44;;;;;;;;;;;8.00;73.40;;;;;;4998971;28;92123;-38
2023/02/23 10:55:28;;;;;;;;;;;8.00;73.40;;;;;;4998026;28;94869;-38
2023/02/23 10:58:17;;;;;;;;;;;8.00;73.40;;;;;;5001763;28;93010;-38
2023/02/23 11:00:51;;;;;;;;;;;8.00;73.40;;;;;;4998370;28;94301;-38
2023/02/23 11:03:22;;;;;;;;;;;8.10;74.00;;;;;;4998581;28;92120;-38
2023/02/23 11:05:54;;;;;;;;;;;8.10;73.50;;;;;;4998188;28;92420;-38
2023/02/23 11:08:22;;;;;;;;;;;8.10;73.50;;;;;;4998016;28;93346;-38
2023/02/23 11:11:13;;;;;;;;;;;8.10;73.50;;;;;;4998636;28;92111;-38
2023/02/23 11:13:46;;;;;;;;;;;8.10;73.50;;;;;;4981892;28;92676;-39
2023/02/23 11:16:16;;;;;;;;;;;8.20;73.50;;;;;;4998250;28;93676;-39
2023/02/23 11:18:48;;;;;;;;;;;8.20;73.60;;;;;;5001841;28;92024;-38
2023/02/23 11:21:20;;;;;;;;;;;8.20;73.40;;;;;;4997939;28;94492;-39
2023/02/23 11:23:48;;;;;;;;;;;8.20;73.40;;;;;;4997582;28;93022;-39
2023/02/23 11:26:27;;;;;;;;;;;8.30;73.60;;;;;;4998369;28;94850;-38
2023/02/23 11:28:55;;;;;;;;;;;8.30;74.20;;;;;;4997907;28;94780;-38
2023/02/23 11:31:27;;;;;;;;;;;8.30;73.50;;;;;;4998212;28;92121;-39
2023/02/23 11:33:53;;;;;;;;;;;8.30;73.70;;;;;;4998356;28;94014;-38
2023/02/23 11:36:30;;;;;;;;;;;8.40;73.80;;;;;;4997686;28;94493;-38
2023/02/23 11:39:04;;;;;;;;;;;8.30;73.80;;;;;;4999239;28;92163;-38
2023/02/23 11:41:34;;;;;;;;;;;8.40;74.00;;;;;;5004822;28;93719;-39
2023/02/23 11:44:01;;;;;;;;;;;8.40;73.80;;;;;;5001618;28;91860;-39
2023/02/23 11:46:28;;;;;;;;;;;8.40;73.90;;;;;;5001704;28;93098;-38
2023/02/23 11:48:58;;;;;;;;;;;8.50;73.90;;;;;;5000126;28;95294;-38
2023/02/23 11:51:35;;;;;;;;;;;8.50;73.80;;;;;;5001524;28;92136;-38
2023/02/23 11:54:01;;;;;;;;;;;8.50;73.90;;;;;;5001476;28;93902;-38
2023/02/23 11:56:28;;;;;;;;;;;8.50;73.90;;;;;;5001019;28;94626;-38
2023/02/23 11:59:00;;;;;;;;;;;8.60;74.20;;;;;;5001253;28;92152;-38
2023/02/23 12:01:50;;;;;;;;;;;8.60;74.40;;;;;;5001468;28;92932;-39
2023/02/23 12:04:24;;;;;;;;;;;8.60;74.10;;;;;;5003874;28;94507;-38
2023/02/23 12:06:50;;;;;;;;;;;8.60;74.20;;;;;;5001426;28;94016;-38
2023/02/23 12:09:19;;;;;;;;;;;8.60;74.20;;;;;;5000678;28;94744;-39
2023/02/23 12:11:47;;;;;;;;;;;8.60;74.20;;;;;;5001235;28;92231;-39
2023/02/23 12:14:13;;;;;;;;;;;8.70;74.30;;;;;;5000011;28;93843;-38
2023/02/23 12:16:42;;;;;;;;;;;8.60;74.40;;;;;;5000911;28;93077;-39
2023/02/23 12:19:08;;;;;;;;;;;8.70;74.40;;;;;;5001058;28;92125;-39
2023/02/23 12:21:42;;;;;;;;;;;8.70;74.40;;;;;;5000859;28;94345;-39
2023/02/23 12:24:26;;;;;;;;;;;8.70;74.30;;;;;;5015879;28;94310;-39
2023/02/23 12:26:57;;;;;;;;;;;8.80;74.20;;;;;;5003888;28;92327;-38
2023/02/23 12:29:38;;;;;;;;;;;8.80;74.20;;;;;;5000335;28;94555;-38
2023/02/23 12:32:08;;;;;;;;;;;8.80;74.30;;;;;;5001385;28;91454;-38
2023/02/23 12:34:37;;;;;;;;;;;8.80;74.30;;;;;;5001110;28;92110;-38
2023/02/23 12:37:36;;;;;;;;;;;8.90;74.40;;;;;;4999965;28;94362;-38
2023/02/23 12:40:14;;;;;;;;;;;8.90;74.50;;;;;;4991093;28;95129;-39
2023/02/23 12:42:43;;;;;;;;;;;8.90;74.50;;;;;;5000522;28;93781;-39
2023/02/23 12:45:14;;;;;;;;;;;8.90;74.50;;;;;;5000061;28;94538;-38
2023/02/23 12:48:02;;;;;;;;;;;9.00;74.50;;;;;;5000522;28;92081;-39
2023/02/23 12:50:32;;;;;;;;;;;9.00;74.50;;;;;;5001600;28;94239;-38
2023/02/23 12:53:07;;;;;;;;;;;9.00;74.50;;;;;;5000623;28;92649;-39
2023/02/23 12:55:39;;;;;;;;;;;9.00;74.40;;;;;;5000322;28;93773;-38
2023/02/23 12:58:18;;;;;;;;;;;9.10;74.50;;;;;;5000176;28;93749;-39
2023/02/23 13:00:59;;;;;;;;;;;9.10;74.50;;;;;;5000501;28;92067;-38
2023/02/23 13:03:34;;;;;;;;;;;9.10;74.60;;;;;;5000333;28;92047;-38
2023/02/23 13:06:00;;;;;;;;;;;9.10;74.60;;;;;;4998792;28;95696;-39
2023/02/23 13:08:34;;;;;;;;;;;9.10;74.60;;;;;;5000098;28;92205;-39
2023/02/23 13:11:09;;;;;;;;;;;9.20;74.60;;;;;;5000292;28;93815;-39
2023/02/23 13:13:40;;;;;;;;;;;9.20;74.60;;;;;;5003259;28;93057;-39
2023/02/23 13:16:20;;;;;;;;;;;9.20;74.70;;;;;;4999731;28;93760;-39
2023/02/23 13:18:54;;;;;;;;;;;9.20;74.60;;;;;;4999732;28;94925;-39
2023/02/23 13:21:22;;;;;;;;;;;9.20;74.70;;;;;;5000010;28;92012;-39
2023/02/23 13:23:57;;;;;;;;;;;9.20;74.60;;;;;;5000334;28;93268;-38
2023/02/23 13:26:32;;;;;;;;;;;9.30;74.30;;;;;;4999419;28;94556;-39
2023/02/23 13:29:01;;;;;;;;;;;9.30;74.10;;;;;;4999818;28;92154;-39
2023/02/23 13:31:29;;;;;;;;;;;9.30;73.90;;;;;;4999195;28;93590;-38
2023/02/23 13:33:56;;;;;;;;;;;9.30;73.80;;;;;;5002375;28;96528;-39
2023/02/23 13:36:22;;;;;;;;;;;9.30;73.70;;;;;;5000016;28;92892;-39
2023/02/23 13:38:48;;;;;;;;;;;9.30;73.70;;;;;;4999572;28;92240;-38
2023/02/23 13:41:32;;;;;;;;;;;9.40;74.10;;;;;;4999701;28;92121;-38
2023/02/23 13:44:06;;;;;;;;;;;9.40;74.00;;;;;;4999712;28;93074;-38
2023/02/23 13:46:49;;;;;;;;;;;9.40;73.60;;;;;;4999386;28;94526;-38
2023/02/23 13:49:31;;;;;;;;;;;9.40;73.60;;;;;;5000180;28;91419;-38
2023/02/23 13:51:59;;;;;;;;;;;9.50;73.60;;;;;;4999622;28;92949;-38
2023/02/23 13:54:32;;;;;;;;;;;9.50;73.30;;;;;;4998949;28;94524;-39
2023/02/23 13:57:00;;;;;;;;;;;9.50;73.30;;;;;;5002070;28;93038;-38
2023/02/23 13:59:32;;;;;;;;;;;9.50;73.30;;;;;;4999030;28;94521;-38
2023/02/23 14:01:58;;;;;;;;;;;9.50;73.20;;;;;;4998816;28;92074;-39
2023/02/23 14:04:25;;;;;;;;;;;9.50;72.90;;;;;;4999256;28;94091;-38
2023/02/23 14:06:52;;;;;;;;;;;9.60;73.20;;;;;;4998333;28;94586;-39
2023/02/23 14:09:25;;;;;;;;;;;9.60;73.00;;;;;;4999425;28;92193;-38
2023/02/23 14:11:52;;;;;;;;;;;9.60;73.10;;;;;;4999194;28;94064;-39
2023/02/23 14:14:30;;;;;;;;;;;9.60;73.80;;;;;;4999326;28;93880;-39
2023/02/23 14:17:14;;;;;;;;;;;9.60;72.80;;;;;;4999187;28;92648;-38
2023/02/23 14:19:43;;;;;;;;;;;9.70;72.80;;;;;;5001681;28;92403;-39
2023/02/23 14:22:14;;;;;;;;;;;9.70;72.50;;;;;;4998509;28;93074;-39
2023/02/23 14:24:40;;;;;;;;;;;9.70;72.70;;;;;;4999096;28;94905;-38
2023/02/23 14:27:19;;;;;;;;;;;9.70;72.50;;;;;;4998645;28;94422;-39
2023/02/23 14:30:04;;;;;;;;;;;9.70;72.50;;;;;;4999227;28;92124;-39
2023/02/23 14:32:29;;;;;;;;;;;9.80;72.60;;;;;;4999037;28;93740;-38
2023/02/23 14:34:56;;;;;;;;;;;9.80;72.90;;;;;;4998555;28;94452;-38
2023/02/23 14:37:29;;;;;;;;;;;9.80;72.80;;;;;;4998857;28;92154;-38
2023/02/23 14:40:01;;;;;;;;;;;9.80;72.80;;;;;;4999568;28;93858;-38
2023/02/23 14:42:28;;;;;;;;;;;9.90;72.80;;;;;;5001568;28;93016;-39
2023/02/23 14:44:55;;;;;;;;;;;9.90;72.60;;;;;;4998739;28;94013;-39
2023/02/23 14:47:22;;;;;;;;;;;9.90;72.70;;;;;;5013253;28;94482;-38
2023/02/23 14:49:58;;;;;;;;;;;9.90;72.70;;;;;;4999044;28;92221;-38
2023/02/23 14:52:26;;;;;;;;;;;9.90;72.60;;;;;;4998771;28;93901;-39
2023/02/23 14:55:04;;;;;;;;;;;9.90;72.70;;;;;;4998427;28;94451;-38
2023/02/23 14:57:34;;;;;;;;;;;9.90;72.50;;;;;;4998844;28;92087;-39
2023/02/23 15:00:00;;;;;;;;;;;10.00;72.60;;;;;;4998722;28;95477;-39
2023/02/23 15:02:27;;;;;;;;;;;9.90;72.60;;;;;;4997966;28;94718;-39
2023/02/23 15:04:53;;;;;;;;;;;10.00;72.60;;;;;;5002043;28;91411;-39
2023/02/23 15:07:24;;;;;;;;;;;10.00;72.60;;;;;;4997831;28;94537;-39
2023/02/23 15:09:54;;;;;;;;;;;10.00;72.50;;;;;;4998257;28;92243;-39
2023/02/23 15:12:25;;;;;;;;;;;10.00;72.60;;;;;;4998155;28;92927;-38
2023/02/23 15:14:51;;;;;;;;;;;10.00;72.50;;;;;;5000254;28;94516;-39
2023/02/23 15:17:19;;;;;;;;;;;10.00;72.50;;;;;;5001892;28;92185;-38
2023/02/23 15:19:45;;;;;;;;;;;10.00;72.30;;;;;;5001943;28;94040;-39
2023/02/23 15:22:17;;;;;;;;;;;10.10;72.30;;;;;;5001206;28;94358;-38
2023/02/23 15:24:46;;;;;;;;;;;10.10;72.30;;;;;;5002120;28;92561;-39
2023/02/23 15:27:15;;;;;;;;;;;10.10;72.20;;;;;;5004533;28;93795;-39
2023/02/23 15:29:41;;;;;;;;;;;10.10;72.30;;;;;;5002557;28;91446;-39
2023/02/23 15:32:25;;;;;;;;;;;10.10;72.30;;;;;;5001924;28;92978;-39
2023/02/23 15:34:56;;;;;;;;;;;10.10;72.10;;;;;;5001235;28;92983;-39
2023/02/23 15:37:22;;;;;;;;;;;10.10;72.10;;;;;;5001598;28;93018;-39
2023/02/23 15:40:03;;;;;;;;;;;10.10;72.00;;;;;;5001505;28;94927;-39
2023/02/23 15:42:35;;;;;;;;;;;10.20;72.30;;;;;;5001033;28;94541;-38
2023/02/23 15:45:01;;;;;;;;;;;10.20;72.20;;;;;;5001858;28;92111;-39
2023/02/23 15:47:35;;;;;;;;;;;10.20;72.50;;;;;;5003983;28;94042;-39
2023/02/23 15:50:12;;;;;;;;;;;10.20;72.50;;;;;;5001450;28;92150;-39
2023/02/23 15:52:43;;;;;;;;;;;10.20;72.80;;;;;;5001425;28;93635;-39
2023/02/23 15:55:12;;;;;;;;;;;10.20;72.90;;;;;;5001414;28;93571;-38
2023/02/23 15:57:46;;;;;;;;;;;10.20;72.90;;;;;;5001383;28;91991;-38
2023/02/23 16:00:18;;;;;;;;;;;10.20;73.00;;;;;;5001475;28;93159;-39